Terminal Aerodrome Forecast
Issued by NWS

Home | Current Version | Previous Version | Text Only | Print | Product List | Glossary On
Versions: 1 2 3 4 5 6 7 8 9 10 11 12 13
000
FTUS41 KPHI 201700
TAFPNE
TAF
KPNE 201740Z 2018/2118 22008KT P6SM SCT150 BKN250
     FM210200 VRB03KT P6SM OVC100
     FM210800 24003KT P6SM SCT040 OVC080
     FM211500 17004KT P6SM BKN040=

USA.gov is the U.S. government's official web portal to all federal, state and local government web resources and services.